Time;durP1;ratioP1;P1;durP2;ratioP2;P2;SDS_P1;SDS_P2;PMS_P1;PMS_P2;Temp;Humidity;BMP_temperature;BMP_pressure;BME280_temperature;BME280_humidity;BME280_pressure;Samples;Min_cycle;Max_cycle;Signal;HPM_P1;HPM_P2
2023/11/07 00:02:23;;;;;;;12.33;3.37;;;8.90;99.90;;;;;;5041710;28;20037;-82
2023/11/07 00:04:51;;;;;;;12.53;2.70;;;8.90;99.90;;;;;;5042952;28;20029;-82
2023/11/07 00:07:17;;;;;;;9.00;2.73;;;8.90;99.90;;;;;;5040923;28;20018;-83
2023/11/07 00:09:42;;;;;;;11.77;2.73;;;8.90;99.90;;;;;;5041956;28;20075;-82
2023/11/07 00:12:08;;;;;;;10.60;2.40;;;8.90;99.90;;;;;;5040570;28;20022;-82
2023/11/07 00:14:34;;;;;;;11.20;2.83;;;8.90;99.90;;;;;;5041361;28;20040;-82
2023/11/07 00:16:59;;;;;;;8.87;2.80;;;8.90;99.90;;;;;;5040666;28;20041;-82
2023/11/07 00:19:25;;;;;;;11.77;2.80;;;8.90;99.90;;;;;;5041399;28;20056;-82
2023/11/07 00:21:51;;;;;;;11.43;3.03;;;8.90;99.90;;;;;;5041178;28;20202;-82
2023/11/07 00:24:16;;;;;;;12.67;3.50;;;8.90;99.90;;;;;;5040985;28;20089;-82
2023/11/07 00:26:42;;;;;;;11.13;2.80;;;8.90;99.90;;;;;;5041664;28;20045;-82
2023/11/07 00:29:08;;;;;;;10.47;2.53;;;8.90;99.90;;;;;;5039741;28;20029;-82
2023/11/07 00:31:34;;;;;;;8.67;2.53;;;8.90;99.90;;;;;;5041987;28;20100;-82
2023/11/07 00:34:05;;;;;;;8.47;2.57;;;8.90;99.90;;;;;;5040078;28;20081;-81
2023/11/07 00:36:32;;;;;;;17.33;3.50;;;8.90;99.90;;;;;;5043020;28;20029;-81
2023/11/07 00:38:59;;;;;;;9.77;2.53;;;8.90;99.90;;;;;;5040917;28;20306;-82
2023/11/07 00:41:25;;;;;;;9.30;2.50;;;8.90;99.90;;;;;;5041493;28;20022;-82
2023/11/07 00:43:51;;;;;;;11.00;3.00;;;8.90;99.90;;;;;;5045183;28;20084;-82
2023/11/07 00:46:18;;;;;;;11.00;3.10;;;8.90;99.90;;;;;;5044180;28;20485;-82
2023/11/07 00:48:43;;;;;;;13.47;3.23;;;8.90;99.90;;;;;;5045215;28;20021;-82
2023/11/07 00:51:09;;;;;;;10.17;2.77;;;8.90;99.90;;;;;;5044239;28;20052;-82
2023/11/07 00:53:35;;;;;;;10.97;2.47;;;8.90;99.90;;;;;;5045260;28;20075;-82
2023/11/07 00:56:03;;;;;;;9.50;2.73;;;8.90;99.90;;;;;;5044052;28;20033;-83
2023/11/07 00:58:28;;;;;;;10.13;3.13;;;8.90;99.90;;;;;;5044500;28;20109;-82
2023/11/07 01:00:54;;;;;;;12.57;3.53;;;8.90;99.90;;;;;;5044998;28;20025;-83
2023/11/07 01:03:21;;;;;;;8.27;2.70;;;8.90;99.90;;;;;;5043585;28;20104;-82
2023/11/07 01:05:48;;;;;;;11.73;2.73;;;8.90;99.90;;;;;;5044845;28;20112;-83
2023/11/07 01:08:14;;;;;;;12.63;3.63;;;8.90;99.90;;;;;;5043693;28;20026;-83
2023/11/07 01:10:40;;;;;;;12.53;2.90;;;8.90;99.90;;;;;;5044802;28;20029;-83
2023/11/07 01:13:07;;;;;;;10.23;2.73;;;8.90;99.90;;;;;;5043623;28;20379;-82
2023/11/07 01:15:33;;;;;;;9.77;2.63;;;8.90;99.90;;;;;;5044133;28;20029;-82
2023/11/07 01:17:59;;;;;;;11.47;2.97;;;8.90;99.90;;;;;;5044502;28;20064;-82
2023/11/07 01:20:24;;;;;;;9.90;2.30;;;8.80;99.90;;;;;;5043501;28;20046;-82
2023/11/07 01:22:50;;;;;;;11.57;2.10;;;8.80;99.90;;;;;;5044865;28;20033;-82
2023/11/07 01:25:16;;;;;;;9.13;3.10;;;8.80;99.90;;;;;;5042988;28;20021;-83
2023/11/07 01:27:42;;;;;;;9.10;2.60;;;8.80;99.90;;;;;;5044263;28;20032;-82
2023/11/07 01:30:09;;;;;;;12.93;3.37;;;8.80;99.90;;;;;;5044990;28;20025;-82
2023/11/07 01:32:36;;;;;;;8.53;2.13;;;8.80;99.90;;;;;;5043938;28;20081;-82
2023/11/07 01:35:03;;;;;;;9.20;2.33;;;8.80;99.90;;;;;;5045568;28;20042;-82
2023/11/07 01:37:29;;;;;;;10.53;2.30;;;8.80;99.90;;;;;;5043042;28;20063;-82
2023/11/07 01:39:55;;;;;;;10.00;2.30;;;8.80;99.90;;;;;;5044218;28;20135;-82
2023/11/07 01:42:20;;;;;;;9.10;2.33;;;8.80;99.90;;;;;;5043255;28;20025;-82
2023/11/07 01:44:51;;;;;;;10.93;2.17;;;8.80;99.90;;;;;;5044365;28;20555;-82
2023/11/07 01:47:19;;;;;;;9.47;2.07;;;8.80;99.90;;;;;;5043220;28;20112;-82
2023/11/07 01:49:46;;;;;;;12.63;2.10;;;8.80;99.90;;;;;;5044004;28;20429;-81
2023/11/07 01:52:12;;;;;;;6.60;1.67;;;8.90;99.90;;;;;;5043550;28;20021;-82
2023/11/07 01:54:38;;;;;;;9.03;2.43;;;8.80;99.90;;;;;;5042510;28;20044;-83
2023/11/07 01:57:04;;;;;;;8.10;1.73;;;8.90;99.90;;;;;;5044144;28;20029;-82
2023/11/07 01:59:31;;;;;;;6.00;1.90;;;8.90;99.90;;;;;;5042484;28;20029;-82
2023/11/07 02:02:05;;;;;;;6.10;1.83;;;8.90;99.90;;;;;;5045527;28;20024;-82
2023/11/07 02:04:31;;;;;;;13.10;2.50;;;8.90;99.90;;;;;;5043054;28;20477;-83
2023/11/07 02:06:57;;;;;;;12.67;1.87;;;8.90;99.90;;;;;;5043343;28;20041;-83
2023/11/07 02:09:23;;;;;;;6.93;2.00;;;8.90;99.90;;;;;;5043308;28;20018;-83
2023/11/07 02:11:48;;;;;;;8.10;2.10;;;8.90;99.90;;;;;;5044048;28;20032;-83
2023/11/07 02:14:35;;;;;;;8.63;1.83;;;8.90;99.90;;;;;;5043721;28;20030;-84
2023/11/07 02:17:01;;;;;;;6.90;2.07;;;8.90;99.90;;;;;;5042452;28;20109;-83
2023/11/07 02:19:26;;;;;;;9.30;3.00;;;8.90;99.90;;;;;;5043446;28;20060;-82
2023/11/07 02:21:57;;;;;;;11.43;2.60;;;8.90;99.90;;;;;;5044633;28;20493;-83
2023/11/07 02:24:22;;;;;;;11.80;2.00;;;8.90;99.90;;;;;;5041846;28;20101;-83
2023/11/07 02:26:53;;;;;;;8.33;2.00;;;8.80;99.90;;;;;;5043716;28;20022;-82
2023/11/07 02:29:21;;;;;;;8.13;1.97;;;8.80;99.90;;;;;;5041878;28;20041;-83
2023/11/07 02:31:47;;;;;;;7.87;2.37;;;8.80;99.90;;;;;;5043679;28;20026;-82
2023/11/07 02:34:12;;;;;;;8.07;2.27;;;8.80;99.90;;;;;;5043681;28;20118;-82
2023/11/07 02:36:38;;;;;;;9.57;1.93;;;8.70;99.90;;;;;;5043292;28;20037;-82
2023/11/07 02:39:07;;;;;;;5.93;1.70;;;8.80;99.90;;;;;;5042234;28;20021;-82
2023/11/07 02:41:33;;;;;;;8.33;2.13;;;8.70;99.90;;;;;;5042166;28;20025;-82
2023/11/07 02:43:58;;;;;;;10.03;2.10;;;8.70;99.90;;;;;;5043150;28;20036;-82
2023/11/07 02:46:24;;;;;;;8.97;1.60;;;8.70;99.90;;;;;;5041989;28;20104;-82
2023/11/07 02:48:50;;;;;;;9.77;1.80;;;8.70;99.90;;;;;;5042988;28;20022;-82
2023/11/07 02:51:17;;;;;;;7.97;1.90;;;8.70;99.90;;;;;;5041974;28;20100;-82
2023/11/07 02:53:44;;;;;;;7.77;1.50;;;8.70;99.90;;;;;;5042152;28;20017;-82
2023/11/07 02:56:10;;;;;;;8.33;1.80;;;8.60;99.90;;;;;;5042657;28;20026;-82
2023/11/07 02:58:36;;;;;;;7.13;1.50;;;8.60;99.90;;;;;;5042037;28;20420;-82
2023/11/07 03:01:02;;;;;;;11.03;2.37;;;8.60;99.90;;;;;;5044077;28;20028;-82
2023/11/07 03:03:28;;;;;;;10.40;2.50;;;8.60;99.90;;;;;;5041197;28;20029;-83
2023/11/07 03:05:54;;;;;;;7.83;1.70;;;8.60;99.90;;;;;;5042349;28;20018;-83
2023/11/07 03:08:20;;;;;;;9.77;1.80;;;8.60;99.90;;;;;;5042585;28;20025;-82
2023/11/07 03:10:46;;;;;;;10.27;2.00;;;8.60;99.90;;;;;;5042367;28;20053;-83
2023/11/07 03:13:13;;;;;;;9.63;1.97;;;8.70;99.90;;;;;;5042109;28;20029;-83
2023/11/07 03:15:38;;;;;;;9.27;1.80;;;8.60;99.90;;;;;;5041894;28;20037;-82
2023/11/07 03:18:04;;;;;;;9.10;1.90;;;8.60;99.90;;;;;;5044085;28;20036;-82
2023/11/07 03:20:30;;;;;;;10.37;2.23;;;8.70;99.90;;;;;;5040818;28;20077;-81
2023/11/07 03:22:55;;;;;;;7.33;1.80;;;8.70;99.90;;;;;;5041801;28;20032;-82
2023/11/07 03:25:21;;;;;;;7.03;1.90;;;8.70;99.90;;;;;;5041107;28;20033;-82
2023/11/07 03:27:47;;;;;;;8.97;2.50;;;8.70;99.90;;;;;;5042140;28;20350;-82
2023/11/07 03:30:12;;;;;;;10.73;2.13;;;8.70;99.90;;;;;;5041623;28;20020;-82
2023/11/07 03:32:38;;;;;;;8.00;1.90;;;8.70;99.90;;;;;;5042005;28;20029;-80
2023/11/07 03:35:04;;;;;;;10.90;2.43;;;8.70;99.90;;;;;;5042257;28;20036;-82
2023/11/07 03:37:30;;;;;;;11.57;2.03;;;8.70;99.90;;;;;;5042017;28;20021;-82
2023/11/07 03:39:57;;;;;;;6.87;1.73;;;8.70;99.90;;;;;;5043923;28;20085;-82
2023/11/07 03:42:22;;;;;;;14.73;2.83;;;8.80;99.90;;;;;;5040539;28;20025;-82
2023/11/07 03:44:48;;;;;;;10.40;2.30;;;8.80;99.90;;;;;;5042366;28;20083;-82
2023/11/07 03:47:14;;;;;;;8.17;1.90;;;8.80;99.90;;;;;;5041284;28;20022;-82
2023/11/07 03:49:40;;;;;;;8.97;2.07;;;8.80;99.90;;;;;;5042004;28;20088;-82
2023/11/07 03:52:05;;;;;;;10.83;2.37;;;8.90;99.90;;;;;;5041480;28;20105;-82
2023/11/07 03:54:31;;;;;;;11.40;2.40;;;8.90;99.90;;;;;;5041962;28;20088;-82
2023/11/07 03:56:57;;;;;;;8.57;1.80;;;8.90;99.90;;;;;;5042108;28;20460;-81
2023/11/07 03:59:22;;;;;;;11.00;2.20;;;9.00;99.90;;;;;;5040714;28;20026;-82
2023/11/07 04:01:48;;;;;;;9.33;2.20;;;9.00;99.90;;;;;;5041855;28;20021;-82
2023/11/07 04:04:14;;;;;;;7.83;2.33;;;9.00;99.90;;;;;;5024387;28;20028;-82
2023/11/07 04:06:39;;;;;;;9.23;2.03;;;9.00;99.90;;;;;;5041245;28;20029;-82
2023/11/07 04:09:05;;;;;;;12.23;2.70;;;9.00;99.90;;;;;;5041697;28;20109;-82
2023/11/07 04:11:32;;;;;;;10.23;2.50;;;9.00;99.90;;;;;;5040709;28;20018;-83
2023/11/07 04:13:57;;;;;;;9.33;2.70;;;9.00;99.90;;;;;;5041766;28;20026;-82
2023/11/07 04:16:23;;;;;;;11.87;2.87;;;9.00;99.90;;;;;;5043193;28;20022;-83
2023/11/07 04:18:49;;;;;;;10.23;2.57;;;9.10;99.90;;;;;;5028894;28;20029;-83
2023/11/07 04:21:15;;;;;;;8.33;2.30;;;9.10;99.90;;;;;;5045996;28;20025;-83
2023/11/07 04:23:41;;;;;;;12.03;2.90;;;9.10;99.90;;;;;;5045551;28;20034;-82
2023/11/07 04:26:07;;;;;;;6.20;2.40;;;9.00;99.90;;;;;;5045548;28;20033;-83
2023/11/07 04:28:37;;;;;;;8.23;1.97;;;9.10;99.90;;;;;;5044423;28;20014;-83
2023/11/07 04:31:03;;;;;;;9.90;2.47;;;9.10;99.90;;;;;;5047264;28;20021;-83
2023/11/07 04:33:31;;;;;;;13.90;3.30;;;9.10;99.90;;;;;;5045243;28;20104;-83
2023/11/07 04:35:57;;;;;;;10.23;3.00;;;9.10;99.90;;;;;;5045077;28;20652;-83
2023/11/07 04:38:22;;;;;;;16.13;3.67;;;9.00;99.90;;;;;;5044379;28;20025;-83
2023/11/07 04:40:48;;;;;;;11.80;3.50;;;9.00;99.90;;;;;;5045257;28;20030;-82
2023/11/07 04:43:15;;;;;;;11.63;3.13;;;9.00;99.90;;;;;;5044985;28;20017;-82
2023/11/07 04:45:41;;;;;;;16.97;3.87;;;9.00;99.90;;;;;;5044600;28;20018;-82
2023/11/07 04:48:06;;;;;;;11.63;3.30;;;9.00;99.90;;;;;;5044889;28;20041;-82
2023/11/07 04:50:34;;;;;;;12.10;3.67;;;9.00;99.90;;;;;;5043731;28;20036;-82
2023/11/07 04:53:04;;;;;;;9.17;3.37;;;9.00;99.90;;;;;;5045392;28;20598;-82
2023/11/07 04:55:30;;;;;;;11.77;3.67;;;9.00;99.90;;;;;;5044139;28;20036;-82
2023/11/07 04:57:56;;;;;;;15.07;3.30;;;9.00;99.90;;;;;;5046442;28;20402;-82
2023/11/07 05:00:22;;;;;;;12.33;4.10;;;9.00;99.90;;;;;;5044797;28;20028;-82
2023/11/07 05:02:48;;;;;;;13.13;4.20;;;9.00;99.90;;;;;;5043475;28;20033;-82
2023/11/07 05:05:14;;;;;;;9.97;3.90;;;9.00;99.90;;;;;;5045209;28;20053;-82
2023/11/07 05:07:40;;;;;;;12.10;3.40;;;9.00;99.90;;;;;;5043694;28;20029;-82
2023/11/07 05:10:09;;;;;;;8.57;3.40;;;9.00;99.90;;;;;;5045217;28;20370;-81
2023/11/07 05:12:39;;;;;;;8.20;2.87;;;9.00;99.90;;;;;;5043546;28;20053;-82
2023/11/07 05:15:05;;;;;;;11.23;3.97;;;9.00;99.90;;;;;;5046071;28;20624;-82
2023/11/07 05:17:31;;;;;;;11.10;4.17;;;9.00;99.90;;;;;;5043859;28;20040;-82
2023/11/07 05:19:58;;;;;;;11.40;3.40;;;9.10;99.90;;;;;;5045233;28;20109;-83
2023/11/07 05:22:24;;;;;;;11.93;3.80;;;9.10;99.90;;;;;;5044976;28;20063;-82
2023/11/07 05:24:51;;;;;;;11.87;4.27;;;9.10;99.90;;;;;;5043299;28;20017;-82
2023/11/07 05:27:17;;;;;;;14.23;3.77;;;9.10;99.90;;;;;;5043817;28;20018;-82
2023/11/07 05:29:45;;;;;;;8.40;3.50;;;9.10;99.90;;;;;;5043362;28;20051;-82
2023/11/07 05:32:11;;;;;;;14.30;4.97;;;9.10;99.90;;;;;;5044103;28;20087;-81
2023/11/07 05:34:39;;;;;;;13.57;4.90;;;9.10;99.90;;;;;;5043803;28;20035;-81
2023/11/07 05:37:05;;;;;;;13.47;5.07;;;9.20;99.90;;;;;;5043570;28;20013;-81
2023/11/07 05:39:31;;;;;;;13.90;5.57;;;9.10;99.90;;;;;;5044405;28;20049;-81
2023/11/07 05:41:58;;;;;;;14.47;5.27;;;9.20;99.90;;;;;;5044371;28;20033;-81
2023/11/07 05:44:24;;;;;;;10.40;4.40;;;9.20;99.90;;;;;;5044446;28;20022;-81
2023/11/07 05:46:50;;;;;;;10.53;5.10;;;9.20;99.90;;;;;;5042438;28;20091;-81
2023/11/07 05:49:16;;;;;;;14.37;5.13;;;9.20;99.90;;;;;;5044192;28;20052;-81
2023/11/07 05:51:42;;;;;;;12.40;5.27;;;9.20;99.90;;;;;;5043699;28;20030;-81
2023/11/07 05:54:09;;;;;;;14.87;5.23;;;9.20;99.90;;;;;;5043636;28;20036;-81
2023/11/07 05:56:35;;;;;;;15.90;6.07;;;9.20;99.90;;;;;;5045804;28;20029;-81
2023/11/07 05:59:03;;;;;;;17.43;6.60;;;9.20;99.90;;;;;;5043202;28;20025;-81
2023/11/07 06:01:29;;;;;;;17.20;5.97;;;9.20;99.90;;;;;;5044036;28;20020;-81
2023/11/07 06:03:54;;;;;;;12.40;5.50;;;9.20;99.90;;;;;;5042377;28;20017;-85
2023/11/07 06:06:20;;;;;;;12.67;5.33;;;9.20;99.90;;;;;;5045502;28;20029;-81
2023/11/07 06:08:46;;;;;;;18.53;7.23;;;9.20;99.90;;;;;;5043151;28;20416;-83
2023/11/07 06:11:11;;;;;;;14.13;5.27;;;9.20;99.90;;;;;;5026923;28;20030;-80
2023/11/07 06:13:37;;;;;;;15.97;5.60;;;9.20;99.90;;;;;;5051603;28;20025;-80
2023/11/07 06:16:06;;;;;;;11.13;5.20;;;9.20;99.90;;;;;;5062113;28;20453;-80
2023/11/07 06:18:32;;;;;;;12.93;5.17;;;9.20;99.90;;;;;;5063342;28;20025;-80
2023/11/07 06:20:58;;;;;;;18.60;5.83;;;9.20;99.90;;;;;;5063865;28;20045;-80
2023/11/07 06:23:24;;;;;;;11.43;4.80;;;9.20;99.90;;;;;;5060634;28;20025;-80
2023/11/07 06:25:50;;;;;;;8.80;4.90;;;9.20;99.90;;;;;;5045046;28;20026;-80
2023/11/07 06:28:16;;;;;;;10.67;5.27;;;9.30;99.90;;;;;;5059340;28;20051;-80
2023/11/07 06:30:43;;;;;;;12.63;5.27;;;9.30;99.90;;;;;;5062448;28;20021;-79
2023/11/07 06:33:09;;;;;;;12.80;5.60;;;9.30;99.90;;;;;;5061629;28;20086;-80
2023/11/07 06:35:35;;;;;;;11.13;5.27;;;9.30;99.90;;;;;;5063124;28;20024;-79
2023/11/07 06:38:01;;;;;;;11.43;5.60;;;9.30;99.90;;;;;;5062134;28;20021;-79
2023/11/07 06:40:26;;;;;;;12.73;5.07;;;9.30;99.90;;;;;;5063734;28;20028;-80
2023/11/07 06:42:52;;;;;;;11.90;5.50;;;9.30;99.90;;;;;;5061560;28;20465;-80
2023/11/07 06:45:18;;;;;;;13.90;5.47;;;9.40;99.90;;;;;;5063722;28;20609;-79
2023/11/07 06:47:46;;;;;;;13.80;5.27;;;9.40;99.90;;;;;;5064068;28;20029;-80
2023/11/07 06:50:13;;;;;;;12.97;5.33;;;9.40;99.90;;;;;;5062096;28;20048;-80
2023/11/07 06:52:41;;;;;;;13.93;5.87;;;9.40;99.90;;;;;;5063336;28;20051;-80
2023/11/07 06:55:09;;;;;;;12.27;4.97;;;9.40;99.90;;;;;;5061286;28;20041;-82
2023/11/07 06:57:34;;;;;;;11.63;4.67;;;9.40;99.90;;;;;;5062853;28;20397;-80
2023/11/07 07:00:05;;;;;;;16.33;4.63;;;9.40;99.90;;;;;;5061423;28;20024;-84
2023/11/07 07:02:30;;;;;;;11.23;5.00;;;9.40;99.90;;;;;;5063665;28;20085;-78
2023/11/07 07:04:57;;;;;;;11.63;4.90;;;9.40;99.90;;;;;;5062370;28;20480;-79
2023/11/07 07:07:23;;;;;;;14.63;5.77;;;9.40;99.90;;;;;;5063239;28;20044;-79
2023/11/07 07:09:49;;;;;;;17.13;5.13;;;9.50;99.90;;;;;;5062665;28;20028;-78
2023/11/07 07:12:15;;;;;;;9.17;4.27;;;9.50;99.90;;;;;;5061037;28;20023;-79
2023/11/07 07:14:40;;;;;;;14.47;5.70;;;9.50;99.90;;;;;;5063117;28;20037;-80
2023/11/07 07:17:07;;;;;;;14.13;5.00;;;9.50;99.90;;;;;;5061195;28;20029;-80
2023/11/07 07:19:37;;;;;;;9.90;4.57;;;9.50;99.90;;;;;;5062829;28;20179;-79
2023/11/07 07:22:05;;;;;;;8.73;4.63;;;9.50;99.90;;;;;;5061235;28;20100;-79
2023/11/07 07:24:31;;;;;;;9.90;5.13;;;9.50;99.90;;;;;;5043471;28;20115;-79
2023/11/07 07:26:58;;;;;;;13.20;4.77;;;9.50;99.90;;;;;;5043568;28;20560;-79
2023/11/07 07:29:26;;;;;;;12.23;5.37;;;9.50;99.90;;;;;;5041502;28;20480;-79
2023/11/07 07:31:52;;;;;;;11.40;4.43;;;9.60;99.90;;;;;;5042415;28;20124;-79
2023/11/07 07:34:18;;;;;;;12.23;5.07;;;9.60;99.90;;;;;;5041030;28;20040;-79
2023/11/07 07:36:44;;;;;;;10.30;4.57;;;9.60;99.90;;;;;;5041549;28;20021;-79
2023/11/07 07:39:29;;;;;;;10.00;4.13;;;9.60;99.90;;;;;;5043435;28;20052;-79
2023/11/07 07:42:00;;;;;;;17.77;6.00;;;9.60;99.90;;;;;;5040823;28;20036;-79
2023/11/07 07:44:26;;;;;;;12.27;4.90;;;9.60;99.90;;;;;;5042241;28;20025;-79
2023/11/07 07:46:54;;;;;;;10.80;4.73;;;9.60;99.90;;;;;;5041194;28;20021;-79
2023/11/07 07:49:23;;;;;;;9.57;5.23;;;9.60;99.90;;;;;;5043218;28;20029;-79
2023/11/07 07:51:55;;;;;;;11.37;5.30;;;9.60;99.90;;;;;;5042872;28;20043;-79
2023/11/07 07:54:24;;;;;;;12.13;5.30;;;9.60;99.90;;;;;;5042411;28;20045;-79
2023/11/07 07:56:55;;;;;;;11.43;4.83;;;9.60;99.90;;;;;;5041753;28;20067;-79
2023/11/07 07:59:23;;;;;;;10.07;5.03;;;9.70;99.90;;;;;;5040542;28;20638;-79
2023/11/07 08:01:58;;;;;;;11.73;5.97;;;9.70;99.90;;;;;;5041560;28;20025;-79
2023/11/07 08:04:26;;;;;;;14.40;6.10;;;9.70;99.90;;;;;;5041336;28;20049;-79
2023/11/07 08:06:52;;;;;;;10.63;5.27;;;9.70;99.90;;;;;;5041459;28;20029;-80
2023/11/07 08:09:18;;;;;;;10.43;5.50;;;9.80;99.90;;;;;;5043219;28;20032;-79
2023/11/07 08:11:47;;;;;;;11.70;6.50;;;9.80;99.90;;;;;;5040428;28;20112;-79
2023/11/07 08:14:14;;;;;;;12.27;5.93;;;9.80;99.90;;;;;;5041953;28;20048;-79
2023/11/07 08:16:41;;;;;;;12.83;5.60;;;9.80;99.90;;;;;;5040682;28;20033;-79
2023/11/07 08:19:09;;;;;;;9.43;4.77;;;9.90;99.90;;;;;;5041505;28;20048;-79
2023/11/07 08:21:38;;;;;;;10.53;5.17;;;9.90;99.90;;;;;;5041091;28;20473;-79
2023/11/07 08:24:05;;;;;;;13.90;5.72;;;9.90;99.90;;;;;;5042420;28;20073;-79
2023/11/07 08:26:30;;;;;;;14.87;6.20;;;9.90;99.90;;;;;;5042711;28;20077;-79
2023/11/07 08:28:56;;;;;;;11.20;5.27;;;9.90;99.90;;;;;;5041189;28;20025;-79
2023/11/07 08:31:22;;;;;;;11.30;5.73;;;9.90;99.90;;;;;;5042870;28;20030;-79
2023/11/07 08:33:49;;;;;;;11.10;5.17;;;10.00;99.90;;;;;;5040453;28;20029;-79
2023/11/07 08:36:17;;;;;;;10.20;5.17;;;10.00;99.90;;;;;;5041506;28;20057;-79
2023/11/07 08:38:43;;;;;;;9.93;4.90;;;10.00;99.90;;;;;;5042283;28;20084;-79
2023/11/07 08:41:09;;;;;;;9.00;4.27;;;10.10;99.90;;;;;;5040676;28;20470;-79
2023/11/07 08:43:35;;;;;;;9.23;4.47;;;10.00;99.90;;;;;;5041116;28;20052;-79
2023/11/07 08:46:01;;;;;;;10.17;4.07;;;10.10;99.90;;;;;;5040581;28;20064;-79
2023/11/07 08:48:28;;;;;;;9.95;4.38;;;10.10;99.90;;;;;;5042902;28;20097;-79
2023/11/07 08:50:54;;;;;;;11.70;4.40;;;10.20;99.90;;;;;;5040296;28;20116;-79
2023/11/07 08:53:20;;;;;;;11.98;4.70;;;10.20;99.90;;;;;;5041527;28;20411;-79
2023/11/07 08:55:49;;;;;;;8.80;3.72;;;10.20;99.90;;;;;;5041795;28;20037;-79
2023/11/07 08:58:16;;;;;;;6.53;3.30;;;10.30;99.90;;;;;;5040693;28;20024;-79
2023/11/07 09:00:44;;;;;;;6.73;3.17;;;10.40;99.90;;;;;;5041033;28;20027;-79
2023/11/07 09:03:10;;;;;;;5.80;2.78;;;10.40;99.90;;;;;;5041972;28;20048;-79
2023/11/07 09:05:35;;;;;;;6.72;2.90;;;10.60;99.90;;;;;;5045342;28;20085;-79
2023/11/07 09:08:04;;;;;;;6.20;2.58;;;10.60;99.90;;;;;;5043544;28;20026;-79
2023/11/07 09:10:33;;;;;;;6.35;2.47;;;10.70;99.90;;;;;;5044654;28;20022;-79
2023/11/07 09:12:59;;;;;;;6.30;2.42;;;10.80;99.90;;;;;;5044485;28;20014;-79
2023/11/07 09:15:25;;;;;;;7.30;2.65;;;10.80;99.90;;;;;;5045072;28;20462;-80
2023/11/07 09:17:51;;;;;;;5.35;2.38;;;10.80;99.90;;;;;;5045239;28;20498;-79
2023/11/07 09:20:18;;;;;;;8.35;2.78;;;10.80;99.90;;;;;;5044278;28;20057;-79
2023/11/07 09:22:44;;;;;;;7.70;2.70;;;10.80;99.90;;;;;;5045932;28;20545;-79
2023/11/07 09:25:14;;;;;;;7.38;2.65;;;10.80;99.90;;;;;;5045029;28;20021;-79
2023/11/07 09:27:39;;;;;;;9.18;2.63;;;10.90;99.90;;;;;;5044440;28;20113;-79
2023/11/07 09:30:09;;;;;;;6.78;2.85;;;10.90;99.90;;;;;;5043634;28;20029;-79
2023/11/07 09:32:35;;;;;;;6.75;2.40;;;10.90;99.90;;;;;;5044217;28;20013;-79
2023/11/07 09:35:03;;;;;;;3.15;1.60;;;10.90;99.90;;;;;;5044432;28;20045;-79
2023/11/07 09:37:29;;;;;;;7.13;2.13;;;11.00;99.90;;;;;;5043067;28;20117;-79
2023/11/07 09:39:55;;;;;;;8.77;3.13;;;11.00;99.90;;;;;;5043828;28;20097;-79
2023/11/07 09:42:20;;;;;;;5.68;2.17;;;11.00;99.90;;;;;;5043142;28;20025;-79
2023/11/07 09:44:48;;;;;;;4.85;2.15;;;11.10;99.90;;;;;;5044378;28;20032;-79
2023/11/07 09:47:14;;;;;;;5.13;2.15;;;11.10;99.70;;;;;;5043540;28;20018;-79
2023/11/07 09:49:40;;;;;;;8.65;2.17;;;11.10;99.50;;;;;;5043805;28;20040;-79
2023/11/07 09:52:07;;;;;;;4.13;1.90;;;11.20;99.40;;;;;;5044006;28;20052;-79
2023/11/07 09:54:34;;;;;;;7.25;2.08;;;11.20;99.10;;;;;;5042351;28;20072;-79
2023/11/07 09:57:08;;;;;;;5.35;1.88;;;11.20;99.00;;;;;;5044381;28;20015;-79
2023/11/07 10:00:03;;;;;;;7.05;2.28;;;11.20;98.30;;;;;;5042505;28;20026;-79
2023/11/07 10:02:30;;;;;;;6.15;2.10;;;11.20;98.30;;;;;;5043177;28;20029;-79
2023/11/07 10:04:57;;;;;;;5.57;2.20;;;11.30;98.00;;;;;;5043595;28;20025;-80
2023/11/07 10:07:23;;;;;;;5.03;1.95;;;11.20;98.00;;;;;;5042247;28;20477;-79
2023/11/07 10:09:50;;;;;;;6.10;1.88;;;11.30;98.30;;;;;;5044197;28;20048;-79
2023/11/07 10:12:16;;;;;;;5.97;2.05;;;11.40;98.60;;;;;;5042613;28;20021;-80
2023/11/07 10:14:42;;;;;;;4.90;1.98;;;11.40;98.50;;;;;;5043583;28;20040;-79
2023/11/07 10:17:20;;;;;;;4.82;1.70;;;11.60;98.10;;;;;;5044504;28;20026;-79
2023/11/07 10:19:46;;;;;;;4.07;1.52;;;11.70;98.20;;;;;;5043064;28;20046;-80
2023/11/07 10:22:12;;;;;;;7.38;1.70;;;11.80;97.90;;;;;;5042953;28;20028;-80
2023/11/07 10:24:44;;;;;;;6.95;2.00;;;11.90;98.00;;;;;;5043748;28;20037;-79
2023/11/07 10:27:11;;;;;;;4.30;1.10;;;12.00;97.60;;;;;;5043204;28;20086;-79
2023/11/07 10:29:51;;;;;;;4.15;1.20;;;12.10;97.60;;;;;;5041837;28;20029;-79
2023/11/07 10:32:17;;;;;;;5.50;1.27;;;12.30;97.30;;;;;;5044612;28;20025;-79
2023/11/07 10:34:43;;;;;;;6.97;1.52;;;12.40;97.00;;;;;;5043430;28;20029;-79
2023/11/07 10:37:09;;;;;;;9.05;1.70;;;12.60;96.90;;;;;;5041935;28;20036;-79
2023/11/07 10:39:35;;;;;;;4.63;1.38;;;12.80;96.40;;;;;;5043632;28;20017;-79
2023/11/07 10:42:18;;;;;;;3.50;1.00;;;13.00;95.90;;;;;;5043652;28;20051;-80
2023/11/07 10:44:45;;;;;;;7.22;1.23;;;13.30;96.20;;;;;;5043076;28;20468;-80
2023/11/07 10:47:11;;;;;;;6.18;1.00;;;13.80;96.80;;;;;;5042594;28;20021;-80
2023/11/07 10:49:36;;;;;;;8.75;1.15;;;14.40;97.40;;;;;;5042799;28;20028;-80
2023/11/07 10:52:05;;;;;;;6.22;1.13;;;15.00;97.00;;;;;;5042646;28;20048;-80
2023/11/07 10:54:31;;;;;;;3.03;0.98;;;15.30;95.60;;;;;;5041890;28;20075;-80
2023/11/07 10:57:04;;;;;;;7.38;1.15;;;15.60;92.40;;;;;;5044115;28;20081;-80
2023/11/07 10:59:33;;;;;;;4.68;0.80;;;15.90;91.60;;;;;;5041725;28;20026;-80
2023/11/07 11:02:01;;;;;;;5.93;1.27;;;16.20;90.80;;;;;;5042912;28;20033;-80
2023/11/07 11:04:33;;;;;;;2.50;0.80;;;16.40;88.20;;;;;;5042411;28;20017;-80
2023/11/07 11:07:03;;;;;;;3.75;1.17;;;16.60;87.10;;;;;;5041229;28;20079;-80
2023/11/07 11:09:32;;;;;;;3.13;0.80;;;16.90;86.00;;;;;;5044036;28;20477;-80
2023/11/07 11:12:01;;;;;;;4.65;1.02;;;17.00;85.40;;;;;;5041250;28;20108;-79
2023/11/07 11:14:27;;;;;;;5.00;0.85;;;17.10;83.90;;;;;;5043996;28;20041;-80
2023/11/07 11:17:04;;;;;;;4.95;1.13;;;17.10;81.60;;;;;;5041398;28;20033;-80
2023/11/07 11:19:38;;;;;;;4.03;0.90;;;17.00;80.50;;;;;;5043297;28;20053;-80
2023/11/07 11:22:50;;;;;;;6.38;1.30;;;17.00;81.10;;;;;;5042033;28;20033;-80
2023/11/07 11:25:41;;;;;;;2.50;0.75;;;17.10;79.20;;;;;;5040662;28;20022;-80
2023/11/07 11:28:06;;;;;;;2.95;0.70;;;16.90;78.50;;;;;;5041327;28;20034;-79
2023/11/07 11:30:34;;;;;;;5.38;1.17;;;16.90;78.40;;;;;;5042340;28;20031;-80
2023/11/07 11:33:10;;;;;;;4.82;1.25;;;16.90;78.10;;;;;;5041136;28;20054;-80
2023/11/07 11:35:43;;;;;;;3.92;0.90;;;17.00;77.90;;;;;;5041824;28;20517;-80
2023/11/07 11:38:13;;;;;;;5.65;1.08;;;17.20;77.50;;;;;;5040845;28;20043;-80
2023/11/07 11:40:56;;;;;;;3.40;0.77;;;17.60;76.80;;;;;;5042154;28;20105;-80
2023/11/07 11:43:24;;;;;;;4.10;1.15;;;17.80;76.40;;;;;;5042382;28;20037;-80
2023/11/07 11:45:50;;;;;;;5.28;0.70;;;17.90;75.40;;;;;;5041169;28;20021;-80
2023/11/07 11:48:18;;;;;;;5.30;1.00;;;17.90;73.30;;;;;;5042418;28;20068;-80
2023/11/07 11:51:04;;;;;;;3.55;0.80;;;17.60;71.90;;;;;;5041926;28;20022;-80
2023/11/07 11:53:34;;;;;;;3.55;0.70;;;17.30;71.80;;;;;;5041494;28;20029;-80
2023/11/07 11:55:59;;;;;;;4.07;0.95;;;17.00;71.80;;;;;;5043311;28;20120;-80
2023/11/07 11:58:31;;;;;;;3.53;0.88;;;16.80;72.60;;;;;;5041220;28;20021;-79
2023/11/07 12:01:01;;;;;;;4.88;0.90;;;16.50;72.40;;;;;;5043247;28;20036;-80
2023/11/07 12:03:48;;;;;;;5.28;1.10;;;16.30;72.60;;;;;;5041564;28;20030;-80
2023/11/07 12:06:13;;;;;;;4.47;0.82;;;16.00;72.90;;;;;;5041886;28;20029;-79
2023/11/07 12:08:42;;;;;;;2.65;0.85;;;15.80;73.80;;;;;;5041043;28;20040;-79
2023/11/07 12:11:09;;;;;;;3.38;0.80;;;15.60;74.40;;;;;;5041371;28;20018;-79
2023/11/07 12:13:36;;;;;;;5.00;0.80;;;15.60;75.70;;;;;;5041948;28;20466;-80
2023/11/07 12:16:19;;;;;;;2.63;0.55;;;16.10;76.40;;;;;;5040484;28;20036;-80
2023/11/07 12:18:46;;;;;;;4.80;1.10;;;16.60;75.00;;;;;;5041401;28;20037;-80
2023/11/07 12:21:23;;;;;;;4.20;0.80;;;16.70;73.70;;;;;;5040526;28;20030;-79
2023/11/07 12:23:51;;;;;;;4.28;1.08;;;16.90;73.30;;;;;;5040979;28;20079;-79
2023/11/07 12:26:16;;;;;;;4.13;0.80;;;17.00;72.50;;;;;;5041842;28;20480;-80
2023/11/07 12:28:44;;;;;;;5.45;1.13;;;17.10;72.00;;;;;;5041749;28;20021;-80
2023/11/07 12:31:10;;;;;;;3.88;0.88;;;17.00;71.00;;;;;;5041638;28;20014;-80
2023/11/07 12:33:44;;;;;;;3.72;0.77;;;17.00;71.00;;;;;;5039933;28;20371;-80
2023/11/07 12:36:12;;;;;;;5.60;0.93;;;17.20;72.20;;;;;;5041293;28;20033;-80
2023/11/07 12:38:39;;;;;;;5.93;0.77;;;17.70;72.30;;;;;;5043885;28;20044;-79
2023/11/07 12:41:06;;;;;;;3.15;0.57;;;18.30;72.30;;;;;;5045849;28;20017;-80
2023/11/07 12:43:41;;;;;;;2.65;0.68;;;18.90;71.60;;;;;;5047612;28;20017;-80
2023/11/07 12:46:14;;;;;;;3.03;0.55;;;19.50;70.00;;;;;;5044956;28;20505;-80
2023/11/07 12:48:40;;;;;;;6.68;1.08;;;19.90;67.70;;;;;;5045573;28;20044;-80
2023/11/07 12:51:08;;;;;;;2.47;0.60;;;19.90;66.10;;;;;;5046856;28;20077;-80